X  Cerrar Datos meteorológicos de aviación METAR     LIPX Verona-Villafranca Valerio Catullo Airport
Temperatura
9°C Temperatura
8°C Punto de rocío
94% Humedad



Viento
2 KM/H
1 MPH
0 M/S
1 NUDO



Calma
Norte
Condiciones actuales

Parcialmente nublado Parcialmente nublado
Presión 1017.92 (hPa) - 30.06 (inHg)
Visibilidad 3.7 (milla) - 6 (km)
Aeropuerto
Código de aeropuerto LIPX

localidad: Verona-Villafranca Valerio Catullo Airport
Distancia: 50 (km)

Metar:
LIPX 050850Z VRB01KT 6000 FEW015 BKN030 09/08 Q1018

Hora: 05-12-2022 09:50 CET